Colmar, Illinois
Current Conditions -  °F | °C
As of 3:35 AM on Sunday 23 Nov 2014 (Local Time) from KMQB Reporting Station
Overcast Overcast  
Wind Chill: 46°   Ceiling: 3900
Heat Index: 49°   Visibility: 10mi
Dew Point: 47°   Wind: 8mph
Humidity: 94%   Direction: 150°SSE
Pressure: 29.74"   Gusts: NA
Location:  40.2814°N, 90.8526°W
Report Text: KMQB 230935Z AUTO 15007KT 10SM OVC039 10/09 A2974 RMK AO2 T00950086
Loading
Personal Weather Stations






























Interactive Weather Map New forecast layout! Learn more

10-Day Weather Forecast

Advertisements
Track Severe Weather on mobile